createdAt,value
2022-12-24T00:01:03.196Z,159.90
2022-12-24T00:03:30.123Z,173.60
2022-12-24T00:05:56.941Z,172.30
2022-12-24T00:08:23.567Z,165.00
2022-12-24T00:10:53.648Z,177.20
2022-12-24T00:13:20.959Z,168.20
2022-12-24T00:15:48.173Z,171.60
2022-12-24T00:18:14.994Z,170.40
2022-12-24T00:20:41.743Z,162.10
2022-12-24T00:23:08.405Z,136.40
2022-12-24T00:25:37.493Z,119.60
2022-12-24T00:28:04.341Z,111.50
2022-12-24T00:30:31.092Z,106.30
2022-12-24T00:32:57.867Z,114.20
2022-12-24T00:35:24.559Z,102.00
2022-12-24T00:37:51.288Z,119.60
2022-12-24T00:40:18.513Z,119.80
2022-12-24T00:42:45.161Z,113.50
2022-12-24T00:45:12.483Z,117.10
2022-12-24T00:47:39.197Z,98.90
2022-12-24T00:50:06.689Z,108.00
2022-12-24T00:52:34.229Z,100.70
2022-12-24T00:55:01.416Z,96.80
2022-12-24T00:57:28.127Z,114.10
2022-12-24T00:59:55.715Z,112.70
2022-12-24T01:02:22.614Z,106.30
2022-12-24T01:05:08.271Z,113.30
2022-12-24T01:07:35.253Z,105.60
2022-12-24T01:10:02.431Z,100.70
2022-12-24T01:12:29.067Z,98.40
2022-12-24T01:14:55.677Z,105.90
2022-12-24T01:17:23.853Z,114.30
2022-12-24T01:19:50.666Z,109.70
2022-12-24T01:22:17.381Z,111.10
2022-12-24T01:24:44.322Z,109.00
2022-12-24T01:27:10.911Z,103.20
2022-12-24T01:29:37.664Z,97.40
2022-12-24T01:32:04.421Z,107.30
2022-12-24T01:34:31.495Z,89.00
2022-12-24T01:36:58.308Z,105.50
2022-12-24T01:39:25.239Z,96.80
2022-12-24T01:42:10.444Z,89.60
2022-12-24T01:44:44.501Z,98.00
2022-12-24T01:47:23.305Z,96.90
2022-12-24T01:49:55.931Z,89.00
2022-12-24T01:52:27.807Z,79.50
2022-12-24T01:55:02.871Z,79.20
2022-12-24T01:57:37.877Z,76.20
2022-12-24T02:00:08.670Z,88.60
2022-12-24T02:02:37.088Z,93.90
2022-12-24T02:05:24.176Z,121.50
2022-12-24T02:07:52.596Z,111.70
2022-12-24T02:10:19.897Z,101.90
2022-12-24T02:12:47.600Z,95.60
2022-12-24T02:15:17.790Z,98.50
2022-12-24T02:18:09.794Z,111.40
2022-12-24T02:20:39.415Z,127.60
2022-12-24T02:23:30.586Z,120.20
2022-12-24T02:26:16.195Z,137.30
2022-12-24T02:29:05.975Z,115.00
2022-12-24T02:31:44.023Z,98.80
2022-12-24T02:34:47.363Z,95.40
2022-12-24T02:37:54.708Z,94.80
2022-12-24T02:40:27.182Z,102.40
2022-12-24T02:43:00.634Z,92.20
2022-12-24T02:45:32.031Z,104.00
2022-12-24T02:48:00.148Z,92.70
2022-12-24T02:50:35.634Z,101.90
2022-12-24T02:53:02.702Z,109.20
2022-12-24T02:55:44.908Z,92.80
2022-12-24T02:58:46.024Z,96.30
2022-12-24T03:01:21.878Z,94.00
2022-12-24T03:04:16.276Z,95.50
2022-12-24T03:06:48.833Z,95.80
2022-12-24T03:09:43.641Z,92.60
2022-12-24T03:12:16.120Z,91.10
2022-12-24T03:14:43.950Z,84.90
2022-12-24T03:17:11.582Z,89.20
2022-12-24T03:19:39.290Z,86.00
2022-12-24T03:22:10.096Z,89.30
2022-12-24T03:24:37.934Z,90.70
2022-12-24T03:27:08.235Z,87.30
2022-12-24T03:29:35.234Z,79.40
2022-12-24T03:32:04.248Z,86.90
2022-12-24T03:34:31.091Z,100.80
2022-12-24T03:36:57.839Z,94.40
2022-12-24T03:39:24.583Z,99.00
2022-12-24T03:41:51.318Z,92.60
2022-12-24T03:44:20.688Z,105.90
2022-12-24T03:46:47.261Z,105.90
2022-12-24T03:49:13.965Z,107.30
2022-12-24T03:51:40.605Z,112.40
2022-12-24T03:54:07.202Z,107.30
2022-12-24T03:56:33.831Z,115.50
2022-12-24T03:59:00.382Z,101.30
2022-12-24T04:01:27.405Z,92.50
2022-12-24T04:03:56.657Z,102.20
2022-12-24T04:06:23.401Z,102.70
2022-12-24T04:08:49.980Z,94.00
2022-12-24T04:11:17.401Z,91.60
2022-12-24T04:13:44.559Z,87.70
2022-12-24T04:16:13.831Z,94.90
2022-12-24T04:18:41.513Z,97.50
2022-12-24T04:21:08.515Z,88.80
2022-12-24T04:23:37.175Z,92.60
2022-12-24T04:26:06.655Z,100.50
2022-12-24T04:28:37.436Z,95.30
2022-12-24T04:31:13.327Z,88.60
2022-12-24T04:33:40.796Z,95.60
2022-12-24T04:36:10.056Z,99.70
2022-12-24T04:38:36.802Z,96.10
2022-12-24T04:41:07.499Z,95.90
2022-12-24T04:43:34.228Z,90.00
2022-12-24T04:46:09.469Z,91.30
2022-12-24T04:48:37.138Z,91.70
2022-12-24T04:51:05.659Z,95.00
2022-12-24T04:53:33.338Z,107.50
2022-12-24T04:56:00.193Z,113.50
2022-12-24T04:58:27.628Z,110.20
2022-12-24T05:00:55.733Z,99.60
2022-12-24T05:03:22.881Z,107.70
2022-12-24T05:05:49.465Z,100.20
2022-12-24T05:08:16.053Z,99.50
2022-12-24T05:10:42.748Z,105.00
2022-12-24T05:13:09.322Z,98.50
2022-12-24T05:15:35.926Z,99.80
2022-12-24T05:18:02.465Z,98.90
2022-12-24T05:20:29.160Z,91.30
2022-12-24T05:23:14.405Z,95.30
2022-12-24T05:25:59.442Z,95.20
2022-12-24T05:28:26.297Z,93.30
2022-12-24T05:30:53.337Z,93.60
2022-12-24T05:33:20.030Z,90.70
2022-12-24T05:35:50.879Z,95.50
2022-12-24T05:38:17.387Z,96.20
2022-12-24T05:40:43.924Z,91.00
2022-12-24T05:43:10.425Z,86.50
2022-12-24T05:45:37.017Z,87.90
2022-12-24T05:48:03.664Z,92.60
2022-12-24T05:50:32.511Z,101.40
2022-12-24T05:53:07.229Z,89.80
2022-12-24T05:55:34.770Z,90.40
2022-12-24T05:58:01.630Z,86.30
2022-12-24T06:00:30.884Z,85.60
2022-12-24T06:03:50.923Z,85.30
2022-12-24T06:06:24.610Z,78.10
2022-12-24T06:09:10.318Z,91.70
2022-12-24T06:11:37.244Z,92.70
2022-12-24T06:17:51.829Z,91.90
2022-12-24T06:20:18.928Z,96.10
2022-12-24T06:26:56.468Z,101.10
2022-12-24T06:29:27.447Z,104.70
2022-12-24T06:31:54.312Z,103.50
2022-12-24T06:34:23.942Z,107.90
2022-12-24T06:36:50.571Z,94.30
2022-12-24T06:39:17.531Z,99.00
2022-12-24T06:42:32.480Z,83.90
2022-12-24T06:45:08.142Z,87.90
2022-12-24T06:47:38.060Z,97.20
2022-12-24T06:50:21.071Z,92.40
2022-12-24T06:52:49.607Z,90.80
2022-12-24T06:55:16.590Z,80.60
2022-12-24T06:57:58.251Z,90.60
2022-12-24T07:00:29.232Z,79.80
2022-12-24T07:02:57.547Z,79.50
2022-12-24T07:05:25.749Z,79.10
2022-12-24T07:07:53.261Z,82.90
2022-12-24T07:10:31.250Z,93.00
2022-12-24T07:13:06.200Z,90.50
2022-12-24T07:15:37.641Z,88.80
2022-12-24T07:18:06.586Z,100.40
2022-12-24T07:20:34.564Z,99.70
2022-12-24T07:23:06.403Z,93.20
2022-12-24T07:25:35.723Z,91.00
2022-12-24T07:28:04.184Z,92.90
2022-12-24T07:30:32.494Z,90.20
2022-12-24T07:33:01.211Z,101.10
2022-12-24T07:35:28.325Z,95.10
2022-12-24T07:37:56.489Z,97.70
2022-12-24T07:40:23.312Z,106.00
2022-12-24T07:42:50.168Z,97.50
2022-12-24T07:45:17.341Z,101.80
2022-12-24T07:47:43.984Z,102.70
2022-12-24T07:50:13.105Z,93.80
2022-12-24T07:52:39.801Z,95.20
2022-12-24T07:55:06.889Z,89.20
2022-12-24T07:57:34.058Z,94.80
2022-12-24T08:00:04.070Z,94.20
2022-12-24T08:02:48.384Z,110.30
2022-12-24T08:05:20.561Z,109.50
2022-12-24T08:07:47.351Z,94.20
2022-12-24T08:33:56.646Z,91.10
2022-12-24T08:36:24.547Z,93.40
2022-12-24T08:42:07.235Z,94.20
2022-12-24T08:44:35.121Z,101.50
2022-12-24T08:47:03.082Z,104.50
2022-12-24T08:49:31.847Z,113.20
2022-12-24T08:52:00.337Z,97.90
2022-12-24T08:54:31.036Z,97.50
2022-12-24T08:56:59.969Z,96.60
2022-12-24T08:59:27.793Z,92.60
2022-12-24T09:01:58.093Z,116.10
2022-12-24T09:07:39.332Z,99.50
2022-12-24T09:10:07.783Z,99.10
2022-12-24T09:12:35.559Z,102.30
2022-12-24T09:15:05.587Z,101.50
2022-12-24T09:17:33.968Z,100.70
2022-12-24T09:20:01.975Z,101.90
2022-12-24T09:32:14.974Z,100.40
2022-12-24T09:42:35.127Z,102.30
2022-12-24T09:45:20.824Z,143.80
2022-12-24T09:48:05.788Z,158.70
2022-12-24T09:51:09.971Z,153.80
2022-12-24T09:53:57.165Z,152.30
2022-12-24T10:02:19.491Z,105.50
2022-12-24T10:04:50.905Z,99.40
2022-12-24T10:11:12.293Z,88.30
2022-12-24T10:14:01.089Z,95.20
2022-12-24T10:16:44.776Z,91.20
2022-12-24T10:19:37.596Z,98.30
2022-12-24T10:22:39.222Z,99.70
2022-12-24T10:25:14.610Z,94.40
2022-12-24T10:27:42.792Z,83.30
2022-12-24T10:30:19.415Z,85.90
2022-12-24T10:35:15.351Z,101.20
2022-12-24T10:41:19.551Z,95.40
2022-12-24T10:43:48.165Z,100.10
2022-12-24T10:46:41.649Z,102.90
2022-12-24T10:49:19.029Z,94.40
2022-12-24T10:52:58.193Z,101.30
2022-12-24T10:55:27.033Z,100.30
2022-12-24T10:58:11.002Z,96.40
2022-12-24T11:00:50.330Z,115.50
2022-12-24T11:03:18.963Z,105.50
2022-12-24T11:06:03.817Z,103.20
2022-12-24T11:08:32.011Z,94.40
2022-12-24T11:11:04.642Z,107.30
2022-12-24T11:13:38.534Z,96.00
2022-12-24T11:16:17.920Z,96.50
2022-12-24T11:18:52.380Z,92.70
2022-12-24T11:21:32.558Z,92.70
2022-12-24T11:24:13.414Z,91.70
2022-12-24T11:30:28.964Z,89.70
2022-12-24T11:33:02.915Z,94.90
2022-12-24T11:35:34.168Z,102.70
2022-12-24T11:38:01.520Z,108.10
2022-12-24T11:44:04.303Z,139.30
2022-12-24T11:46:38.751Z,137.40
2022-12-24T11:49:08.170Z,136.80
2022-12-24T11:51:39.547Z,129.50
2022-12-24T11:54:59.087Z,118.90
2022-12-24T11:57:44.548Z,113.10
2022-12-24T12:00:12.710Z,107.70
2022-12-24T12:02:46.180Z,99.80
2022-12-24T12:05:34.019Z,104.00
2022-12-24T12:08:18.791Z,108.20
2022-12-24T12:10:48.850Z,109.10
2022-12-24T12:13:34.560Z,118.70
2022-12-24T12:16:59.873Z,133.20
2022-12-24T12:19:39.045Z,150.70
2022-12-24T12:23:21.686Z,132.70
2022-12-24T12:26:17.002Z,109.60
2022-12-24T12:28:58.169Z,119.80
2022-12-24T12:31:40.328Z,124.30
2022-12-24T12:34:26.596Z,117.70
2022-12-24T12:37:15.164Z,118.10
2022-12-24T12:39:45.829Z,119.50
2022-12-24T12:42:34.737Z,109.60
2022-12-24T12:46:27.895Z,112.60
2022-12-24T12:49:23.338Z,108.80
2022-12-24T12:52:03.239Z,105.90
2022-12-24T12:58:00.873Z,97.10
2022-12-24T13:00:36.115Z,101.80
2022-12-24T13:03:22.814Z,100.50
2022-12-24T13:07:38.185Z,97.90
2022-12-24T13:10:20.937Z,100.30
2022-12-24T13:12:57.111Z,111.30
2022-12-24T13:15:43.616Z,110.50
2022-12-24T13:18:49.709Z,115.80
2022-12-24T13:21:21.942Z,108.50
2022-12-24T13:23:50.379Z,113.20
2022-12-24T13:26:19.235Z,99.30
2022-12-24T13:28:47.049Z,105.40
2022-12-24T13:31:19.036Z,107.80
2022-12-24T13:37:04.158Z,101.80
2022-12-24T13:42:48.287Z,107.50
2022-12-24T13:45:31.411Z,105.10
2022-12-24T13:48:47.002Z,112.60
2022-12-24T13:51:26.537Z,120.70
2022-12-24T13:54:00.146Z,108.10
2022-12-24T13:56:31.249Z,135.10
2022-12-24T13:59:39.014Z,133.90
2022-12-24T14:02:23.931Z,139.00
2022-12-24T14:04:52.063Z,151.10
2022-12-24T14:07:22.824Z,145.10
2022-12-24T14:09:52.657Z,147.10
2022-12-24T14:12:59.912Z,142.20
2022-12-24T14:15:46.357Z,163.30
2022-12-24T14:18:23.576Z,164.90
2022-12-24T14:21:03.473Z,189.10
2022-12-24T14:24:06.752Z,193.30
2022-12-24T14:26:48.507Z,192.50
2022-12-24T14:33:38.493Z,149.20
2022-12-24T14:36:09.371Z,130.20
2022-12-24T14:38:40.383Z,136.30
2022-12-24T14:41:31.972Z,132.10
2022-12-24T14:44:30.928Z,126.30
2022-12-24T14:47:31.442Z,139.10
2022-12-24T14:54:28.117Z,165.50
2022-12-24T14:57:10.112Z,144.10
2022-12-24T15:00:00.296Z,112.80
2022-12-24T15:02:48.494Z,120.60
2022-12-24T15:08:49.966Z,118.00
2022-12-24T15:11:27.531Z,176.60
2022-12-24T15:14:01.068Z,98.90
2022-12-24T15:20:39.611Z,126.70
2022-12-24T15:23:28.774Z,106.40
2022-12-24T15:26:34.229Z,113.90
2022-12-24T15:29:24.090Z,108.40
2022-12-24T15:32:08.266Z,99.80
2022-12-24T15:38:42.881Z,118.60
2022-12-24T15:41:25.182Z,100.20
2022-12-24T15:51:53.299Z,66.20
2022-12-24T15:54:24.714Z,62.70
2022-12-24T15:56:55.890Z,67.40
2022-12-24T15:59:37.749Z,65.70
2022-12-24T16:02:34.461Z,63.70
2022-12-24T16:05:36.639Z,58.00
2022-12-24T16:10:03.108Z,65.90
2022-12-24T16:12:30.708Z,70.90
2022-12-24T16:15:00.713Z,79.70
2022-12-24T16:17:34.629Z,76.90
2022-12-24T16:24:29.587Z,65.40
2022-12-24T16:26:58.060Z,54.20
2022-12-24T16:29:32.800Z,55.10
2022-12-24T16:36:33.706Z,56.10
2022-12-24T16:39:20.362Z,64.80
2022-12-24T17:01:48.299Z,48.30
2022-12-24T17:04:17.770Z,54.50
2022-12-24T17:12:10.547Z,63.50
2022-12-24T17:14:39.045Z,67.30
2022-12-24T17:17:32.680Z,69.10
2022-12-24T17:20:00.541Z,70.70
2022-12-24T17:23:13.391Z,89.40
2022-12-24T17:25:41.212Z,101.50
2022-12-24T17:28:08.955Z,94.90
2022-12-24T17:30:43.504Z,86.70
2022-12-24T17:33:14.822Z,76.10
2022-12-24T17:35:54.986Z,74.30
2022-12-24T17:38:22.560Z,77.70
2022-12-24T17:40:51.648Z,78.80
2022-12-24T17:43:20.577Z,100.20
2022-12-24T17:45:49.668Z,93.90
2022-12-24T17:48:17.321Z,83.90
2022-12-24T17:55:14.437Z,91.40
2022-12-24T17:57:43.081Z,78.40
2022-12-24T18:00:11.318Z,89.50
2022-12-24T18:02:39.612Z,116.90
2022-12-24T18:05:07.764Z,111.40
2022-12-24T18:07:35.272Z,108.50
2022-12-24T18:16:37.532Z,110.00
2022-12-24T18:19:13.892Z,97.50
2022-12-24T18:21:41.579Z,98.10
2022-12-24T18:24:13.754Z,86.90
2022-12-24T18:26:43.465Z,104.50
2022-12-24T18:29:13.437Z,83.50
2022-12-24T18:31:41.972Z,90.00
2022-12-24T18:38:40.814Z,133.80
2022-12-24T18:41:16.910Z,144.30
2022-12-24T18:52:46.013Z,112.80
2022-12-24T18:55:15.125Z,101.40
2022-12-24T18:57:46.512Z,108.00
2022-12-24T19:00:19.928Z,103.50
2022-12-24T19:02:48.019Z,91.70
2022-12-24T19:05:18.215Z,86.90
2022-12-24T19:07:45.904Z,75.60
2022-12-24T19:10:14.456Z,78.30
2022-12-24T19:12:41.890Z,67.50
2022-12-24T19:15:10.071Z,71.10
2022-12-24T19:17:38.209Z,68.10
2022-12-24T19:20:06.840Z,61.70
2022-12-24T19:23:39.746Z,57.50
2022-12-24T19:26:12.779Z,82.70
2022-12-24T19:28:40.715Z,118.00
2022-12-24T19:31:32.268Z,96.40
2022-12-24T19:37:09.629Z,74.60
2022-12-24T19:39:38.065Z,78.60
2022-12-24T19:52:15.136Z,218.10
2022-12-24T19:54:43.289Z,209.60
2022-12-24T20:07:00.087Z,162.60
2022-12-24T20:09:31.339Z,161.80
2022-12-24T20:11:59.729Z,158.60
2022-12-24T20:14:28.310Z,134.10
2022-12-24T20:16:55.947Z,119.70
2022-12-24T20:19:23.586Z,132.60
2022-12-24T20:21:51.386Z,129.50
2022-12-24T20:24:18.910Z,134.90
2022-12-24T20:26:48.030Z,143.70
2022-12-24T20:29:16.025Z,162.90
2022-12-24T20:31:43.898Z,202.80
2022-12-24T20:34:11.873Z,144.70
2022-12-24T20:36:41.713Z,243.20
2022-12-24T20:39:11.374Z,212.90
2022-12-24T20:41:38.053Z,155.20
2022-12-24T20:44:05.205Z,115.90
2022-12-24T20:46:32.172Z,100.80
2022-12-24T20:48:58.962Z,86.30
2022-12-24T20:51:27.328Z,101.30
2022-12-24T20:53:56.252Z,104.00
2022-12-24T20:56:23.784Z,103.90
2022-12-24T20:58:51.246Z,102.20
2022-12-24T21:01:23.542Z,114.60
2022-12-24T21:03:52.733Z,163.40
2022-12-24T21:06:19.879Z,161.10
2022-12-24T21:08:49.147Z,137.00
2022-12-24T21:11:35.213Z,205.80
2022-12-24T21:14:02.476Z,180.80
2022-12-24T21:16:32.002Z,143.80
2022-12-24T21:18:59.117Z,152.90
2022-12-24T21:21:25.815Z,141.10
2022-12-24T21:23:52.679Z,106.30
2022-12-24T21:26:19.603Z,92.90
2022-12-24T21:28:46.328Z,87.80
2022-12-24T21:37:57.158Z,53.90
2022-12-24T21:40:24.957Z,57.60
2022-12-24T21:43:36.340Z,53.70
2022-12-24T21:46:13.784Z,56.90
2022-12-24T21:48:59.586Z,79.70
2022-12-24T21:51:27.841Z,94.70
2022-12-24T21:54:15.003Z,78.10
2022-12-24T21:57:01.157Z,70.20
2022-12-24T21:59:28.997Z,84.50
2022-12-24T22:01:59.317Z,93.30
2022-12-24T22:04:52.767Z,92.90
2022-12-24T22:08:31.963Z,69.90
2022-12-24T22:11:22.087Z,71.10
2022-12-24T22:13:49.864Z,79.30
2022-12-24T22:16:17.298Z,68.60
2022-12-24T22:18:45.070Z,88.00
2022-12-24T22:21:11.662Z,100.30
2022-12-24T22:23:42.540Z,82.50
2022-12-24T22:26:14.605Z,109.40
2022-12-24T22:28:41.867Z,93.00
2022-12-24T22:31:23.291Z,95.50
2022-12-24T22:33:50.754Z,91.00
2022-12-24T22:36:17.482Z,96.70
2022-12-24T22:38:44.472Z,87.30
2022-12-24T22:41:13.799Z,70.10
2022-12-24T22:43:41.192Z,81.00
2022-12-24T22:46:14.193Z,61.60
2022-12-24T22:48:42.639Z,77.00
2022-12-24T22:51:13.361Z,63.10
2022-12-24T22:53:40.706Z,52.60
2022-12-24T22:56:11.468Z,46.70
2022-12-24T22:58:38.096Z,48.90
2022-12-24T23:01:05.068Z,56.10
2022-12-24T23:03:31.904Z,60.60
2022-12-24T23:06:01.204Z,51.20
2022-12-24T23:08:28.497Z,58.60
2022-12-24T23:11:09.962Z,56.30
2022-12-24T23:13:57.887Z,48.70
2022-12-24T23:16:29.599Z,43.90
2022-12-24T23:18:58.291Z,51.90
2022-12-24T23:21:25.783Z,65.00
2022-12-24T23:23:52.676Z,62.10
2022-12-24T23:26:21.568Z,61.40
2022-12-24T23:28:49.010Z,59.30
2022-12-24T23:31:16.896Z,59.90
2022-12-24T23:33:45.212Z,60.30
2022-12-24T23:36:11.954Z,58.20
2022-12-24T23:38:38.526Z,66.90
2022-12-24T23:41:08.137Z,48.00
2022-12-24T23:43:35.332Z,46.90
2022-12-24T23:46:02.464Z,60.40
2022-12-24T23:48:29.197Z,53.00
2022-12-24T23:51:04.743Z,50.30
2022-12-24T23:53:31.670Z,51.90
2022-12-24T23:55:58.299Z,47.20
2022-12-24T23:58:24.968Z,50.80
